createdAt,value
2023-03-03T00:01:34.641Z,33.28
2023-03-03T00:04:37.322Z,32.17
2023-03-03T00:07:39.679Z,30.30
2023-03-03T00:10:42.499Z,31.58
2023-03-03T00:13:48.934Z,29.93
2023-03-03T00:16:51.719Z,27.60
2023-03-03T00:19:54.810Z,31.87
2023-03-03T00:23:14.286Z,28.60
2023-03-03T00:26:36.589Z,28.02
2023-03-03T00:29:48.425Z,32.47
2023-03-03T00:32:52.942Z,30.52
2023-03-03T00:35:57.571Z,29.73
2023-03-03T00:39:37.812Z,29.35
2023-03-03T00:42:41.061Z,28.75
2023-03-03T00:45:46.250Z,31.87
2023-03-03T00:48:50.834Z,31.60
2023-03-03T00:51:56.136Z,29.73
2023-03-03T00:54:59.503Z,34.05
2023-03-03T00:58:02.436Z,33.73
2023-03-03T01:01:05.723Z,46.67
2023-03-03T01:04:10.258Z,33.33
2023-03-03T01:07:12.860Z,39.92
2023-03-03T01:10:15.329Z,31.00
2023-03-03T01:13:23.898Z,34.63
2023-03-03T01:16:26.414Z,31.77
2023-03-03T01:19:29.174Z,31.02
2023-03-03T01:22:31.570Z,35.20
2023-03-03T01:25:34.669Z,37.63
2023-03-03T01:28:37.013Z,31.70
2023-03-03T01:31:40.514Z,29.17
2023-03-03T01:34:42.853Z,30.70
2023-03-03T01:37:46.179Z,33.63
2023-03-03T01:40:58.129Z,32.20
2023-03-03T01:44:00.913Z,32.83
2023-03-03T01:47:24.999Z,34.10
2023-03-03T01:50:38.374Z,38.40
2023-03-03T01:53:48.291Z,33.65
2023-03-03T01:56:56.019Z,35.53
2023-03-03T02:00:00.795Z,35.40
2023-03-03T02:03:04.954Z,39.50
2023-03-03T02:06:13.487Z,36.00
2023-03-03T02:09:38.492Z,35.47
2023-03-03T02:12:50.260Z,35.97
2023-03-03T02:15:52.686Z,42.13
2023-03-03T02:18:55.544Z,40.42
2023-03-03T02:22:02.375Z,35.53
2023-03-03T02:25:11.258Z,40.00
2023-03-03T02:28:14.890Z,39.75
2023-03-03T02:31:22.143Z,33.27
2023-03-03T02:34:24.781Z,35.72
2023-03-03T02:37:28.580Z,36.35
2023-03-03T02:40:36.743Z,39.10
2023-03-03T02:43:53.318Z,42.17
2023-03-03T02:46:58.131Z,36.40
2023-03-03T02:50:00.860Z,35.25
2023-03-03T02:53:03.897Z,34.42
2023-03-03T02:56:09.528Z,33.97
2023-03-03T02:59:12.469Z,39.70
2023-03-03T03:02:16.123Z,38.13
2023-03-03T03:05:19.226Z,33.85
2023-03-03T03:08:22.135Z,36.40
2023-03-03T03:11:24.873Z,38.20
2023-03-03T03:14:29.222Z,36.78
2023-03-03T03:17:32.223Z,34.33
2023-03-03T03:20:40.220Z,42.42
2023-03-03T03:23:43.595Z,39.33
2023-03-03T03:26:46.927Z,38.08
2023-03-03T03:29:49.439Z,31.20
2023-03-03T03:32:53.540Z,34.67
2023-03-03T03:35:57.197Z,34.08
2023-03-03T03:39:02.981Z,40.50
2023-03-03T03:42:05.935Z,35.17
2023-03-03T03:45:10.172Z,39.38
2023-03-03T03:48:13.107Z,35.27
2023-03-03T03:51:15.806Z,35.33
2023-03-03T03:54:18.375Z,37.80
2023-03-03T03:57:21.156Z,34.80
2023-03-03T04:00:24.492Z,40.15
2023-03-03T04:03:28.716Z,34.93
2023-03-03T04:06:32.216Z,33.08
2023-03-03T04:09:35.304Z,34.97
2023-03-03T04:12:40.805Z,33.90
2023-03-03T04:15:45.380Z,35.60
2023-03-03T04:18:48.228Z,33.47
2023-03-03T04:21:51.629Z,38.17
2023-03-03T04:24:54.552Z,34.42
2023-03-03T04:27:57.541Z,43.08
2023-03-03T04:31:01.406Z,44.22
2023-03-03T04:34:05.361Z,41.77
2023-03-03T04:37:08.293Z,42.50
2023-03-03T04:40:11.381Z,42.53
2023-03-03T04:43:14.856Z,41.53
2023-03-03T04:46:17.928Z,37.15
2023-03-03T04:49:20.371Z,37.77
2023-03-03T04:52:23.432Z,39.10
2023-03-03T04:55:25.894Z,35.00
2023-03-03T04:58:28.882Z,37.80
2023-03-03T05:01:31.585Z,32.65
2023-03-03T05:04:34.469Z,33.60
2023-03-03T05:07:36.827Z,36.20
2023-03-03T05:10:39.785Z,35.17
2023-03-03T05:13:42.190Z,33.55
2023-03-03T05:16:45.229Z,33.60
2023-03-03T05:19:47.691Z,33.70
2023-03-03T05:22:50.609Z,35.20
2023-03-03T05:25:53.297Z,36.38
2023-03-03T05:28:55.992Z,39.78
2023-03-03T05:31:58.686Z,34.88
2023-03-03T05:35:01.479Z,32.17
2023-03-03T05:38:05.531Z,38.47
2023-03-03T05:41:08.336Z,39.53
2023-03-03T05:44:10.948Z,36.88
2023-03-03T05:47:13.723Z,39.45
2023-03-03T05:50:16.785Z,35.83
2023-03-03T05:53:19.533Z,35.17
2023-03-03T05:56:21.895Z,33.60
2023-03-03T05:59:25.185Z,33.60
2023-03-03T06:02:27.729Z,38.17
2023-03-03T06:05:30.612Z,35.53
2023-03-03T06:08:33.051Z,31.30
2023-03-03T06:11:37.611Z,35.30
2023-03-03T06:14:40.008Z,32.95
2023-03-03T06:17:42.702Z,33.33
2023-03-03T06:20:45.038Z,37.30
2023-03-03T06:23:47.926Z,31.67
2023-03-03T06:26:50.321Z,33.03
2023-03-03T06:29:53.487Z,30.00
2023-03-03T06:32:55.889Z,31.50
2023-03-03T06:35:58.896Z,30.33
2023-03-03T06:39:01.451Z,33.70
2023-03-03T06:42:06.880Z,39.80
2023-03-03T06:45:09.836Z,32.35
2023-03-03T06:48:12.694Z,31.87
2023-03-03T06:51:23.016Z,36.57
2023-03-03T06:54:30.861Z,36.10
2023-03-03T06:57:34.591Z,32.78
2023-03-03T07:00:37.301Z,30.27
2023-03-03T07:03:39.694Z,31.87
2023-03-03T07:06:42.389Z,42.60
2023-03-03T07:09:46.520Z,35.63
2023-03-03T07:12:49.240Z,29.77
2023-03-03T07:15:54.123Z,35.45
2023-03-03T07:19:05.460Z,36.42
2023-03-03T07:22:16.430Z,32.63
2023-03-03T07:25:38.128Z,27.95
2023-03-03T07:28:48.719Z,33.45
2023-03-03T07:31:52.494Z,34.63
2023-03-03T07:34:56.962Z,33.55
2023-03-03T07:38:00.413Z,32.93
2023-03-03T07:41:05.328Z,36.92
2023-03-03T07:44:26.286Z,37.97
2023-03-03T07:47:37.104Z,43.65
2023-03-03T07:50:41.077Z,34.25
2023-03-03T07:53:43.650Z,42.90
2023-03-03T07:56:47.315Z,38.90
2023-03-03T08:00:17.094Z,42.17
2023-03-03T08:03:21.119Z,49.65
2023-03-03T08:06:39.188Z,46.85
2023-03-03T08:09:57.661Z,40.73
2023-03-03T08:13:09.096Z,43.70
2023-03-03T08:16:11.863Z,45.40
2023-03-03T08:19:17.236Z,42.17
2023-03-03T08:22:31.501Z,38.65
2023-03-03T08:25:33.903Z,32.73
2023-03-03T08:28:36.681Z,33.13
2023-03-03T08:31:41.870Z,35.05
2023-03-03T08:34:44.792Z,37.67
2023-03-03T08:37:47.448Z,36.55
2023-03-03T08:40:52.147Z,37.03
2023-03-03T08:43:54.483Z,29.15
2023-03-03T08:46:57.285Z,34.70
2023-03-03T08:50:00.397Z,26.50
2023-03-03T08:53:03.333Z,34.22
2023-03-03T08:56:09.282Z,29.70
2023-03-03T08:59:12.273Z,30.77
2023-03-03T09:02:15.212Z,28.23
2023-03-03T09:05:19.479Z,29.35
2023-03-03T09:08:21.892Z,27.73
2023-03-03T09:11:28.270Z,27.80
2023-03-03T09:14:30.958Z,28.92
2023-03-03T09:17:35.732Z,33.45
2023-03-03T09:20:41.426Z,33.50
2023-03-03T09:23:54.068Z,38.08
2023-03-03T09:27:00.799Z,31.03
2023-03-03T09:30:16.991Z,27.15
2023-03-03T09:33:42.700Z,32.45
2023-03-03T09:36:45.669Z,34.08
2023-03-03T09:39:54.493Z,23.80
2023-03-03T09:43:00.770Z,22.07
2023-03-03T09:46:09.235Z,21.40
2023-03-03T09:49:49.928Z,24.30
2023-03-03T09:53:16.753Z,20.95
2023-03-03T09:56:29.641Z,24.45
2023-03-03T09:59:51.547Z,16.13
2023-03-03T10:03:06.421Z,16.40
2023-03-03T10:06:31.099Z,16.45
2023-03-03T10:10:07.563Z,16.05
2023-03-03T10:13:29.925Z,17.37
2023-03-03T10:17:04.806Z,17.13
2023-03-03T10:20:34.802Z,21.42
2023-03-03T10:23:59.237Z,18.00
2023-03-03T10:27:13.920Z,18.42
2023-03-03T10:31:02.544Z,17.37
2023-03-03T10:34:49.395Z,16.80
2023-03-03T10:38:18.532Z,16.20
2023-03-03T10:41:32.125Z,18.05
2023-03-03T10:45:00.922Z,16.35
2023-03-03T10:48:19.987Z,15.32
2023-03-03T10:51:45.547Z,15.00
2023-03-03T10:55:12.751Z,13.25
2023-03-03T10:58:41.286Z,15.65
2023-03-03T11:01:59.130Z,19.50
2023-03-03T11:05:20.454Z,19.35
2023-03-03T11:08:43.930Z,16.27
2023-03-03T11:11:50.914Z,13.57
2023-03-03T11:15:21.224Z,13.93
2023-03-03T11:18:36.899Z,14.25
2023-03-03T11:22:08.029Z,16.35
2023-03-03T11:25:22.389Z,14.40
2023-03-03T11:29:08.698Z,14.18
2023-03-03T11:32:35.668Z,16.95
2023-03-03T11:35:52.783Z,14.23
2023-03-03T11:39:03.587Z,18.90
2023-03-03T11:42:47.721Z,17.77
2023-03-03T11:45:56.642Z,16.67
2023-03-03T11:49:06.217Z,20.20
2023-03-03T11:52:15.964Z,68.10
2023-03-03T11:55:36.285Z,15.90
2023-03-03T11:59:00.416Z,24.50
2023-03-03T12:02:23.438Z,16.48
2023-03-03T12:05:36.247Z,18.95
2023-03-03T12:09:04.215Z,18.20
2023-03-03T12:12:14.488Z,17.58
2023-03-03T12:15:27.712Z,17.37
2023-03-03T12:18:33.143Z,20.98
2023-03-03T12:21:52.438Z,19.98
2023-03-03T12:25:04.908Z,22.65
2023-03-03T12:28:23.816Z,19.45
2023-03-03T12:31:43.742Z,21.33
2023-03-03T12:34:54.673Z,22.37
2023-03-03T12:38:15.235Z,19.10
2023-03-03T12:41:39.527Z,19.98
2023-03-03T12:44:51.108Z,17.33
2023-03-03T12:48:05.584Z,24.80
2023-03-03T12:51:27.174Z,17.15
2023-03-03T12:54:38.548Z,15.98
2023-03-03T12:57:53.533Z,17.62
2023-03-03T13:01:08.444Z,21.65
2023-03-03T13:04:45.731Z,14.67
2023-03-03T13:08:12.981Z,12.90
2023-03-03T13:11:34.925Z,13.05
2023-03-03T13:14:55.735Z,13.62
2023-03-03T13:18:19.833Z,14.02
2023-03-03T13:21:39.842Z,16.40
2023-03-03T13:25:05.417Z,19.45
2023-03-03T13:28:18.862Z,15.73
2023-03-03T13:31:26.407Z,14.38
2023-03-03T13:34:29.280Z,16.73
2023-03-03T13:37:43.599Z,15.47
2023-03-03T13:40:51.474Z,14.70
2023-03-03T13:44:04.055Z,11.50
2023-03-03T13:47:19.177Z,14.45
2023-03-03T13:50:32.162Z,14.35
2023-03-03T13:53:37.614Z,14.03
2023-03-03T13:56:52.546Z,18.05
2023-03-03T14:00:13.321Z,15.73
2023-03-03T14:03:27.077Z,17.42
2023-03-03T14:06:30.772Z,16.20
2023-03-03T14:09:46.211Z,15.83
2023-03-03T14:13:00.998Z,19.90
2023-03-03T14:16:20.163Z,17.60
2023-03-03T14:19:37.053Z,20.73
2023-03-03T14:22:57.092Z,18.52
2023-03-03T14:26:07.347Z,20.33
2023-03-03T14:29:20.517Z,18.27
2023-03-03T14:32:43.032Z,21.37
2023-03-03T14:35:56.995Z,16.70
2023-03-03T14:39:00.136Z,18.27
2023-03-03T14:42:12.904Z,17.47
2023-03-03T14:45:33.769Z,21.52
2023-03-03T14:48:51.053Z,19.67
2023-03-03T14:51:53.680Z,18.75
2023-03-03T14:55:05.307Z,18.35
2023-03-03T14:58:31.550Z,22.57
2023-03-03T15:01:36.802Z,21.20
2023-03-03T15:04:39.424Z,21.52
2023-03-03T15:07:43.136Z,20.48
2023-03-03T15:10:45.996Z,20.37
2023-03-03T15:13:49.061Z,20.47
2023-03-03T15:16:51.595Z,24.92
2023-03-03T15:20:33.832Z,20.10
2023-03-03T15:23:57.355Z,19.75
2023-03-03T15:27:12.390Z,20.75
2023-03-03T15:30:39.580Z,22.97
2023-03-03T15:34:01.331Z,22.27
2023-03-03T15:37:14.090Z,19.80
2023-03-03T15:40:28.382Z,21.55
2023-03-03T15:43:36.853Z,22.02
2023-03-03T15:47:00.172Z,19.10
2023-03-03T15:50:28.869Z,18.65
2023-03-03T15:53:59.901Z,24.85
2023-03-03T15:57:16.832Z,20.42
2023-03-03T16:00:33.455Z,19.17
2023-03-03T16:03:40.786Z,22.03
2023-03-03T16:06:55.990Z,22.20
2023-03-03T16:10:24.592Z,20.85
2023-03-03T16:13:51.384Z,21.70
2023-03-03T16:17:22.478Z,25.37
2023-03-03T16:21:01.555Z,27.67
2023-03-03T16:24:21.475Z,24.37
2023-03-03T16:27:50.294Z,21.30
2023-03-03T16:30:53.340Z,22.50
2023-03-03T16:33:58.994Z,20.98
2023-03-03T16:37:21.660Z,23.80
2023-03-03T16:40:54.175Z,22.75
2023-03-03T16:44:12.332Z,24.33
2023-03-03T16:47:33.725Z,26.67
2023-03-03T16:51:04.405Z,24.45
2023-03-03T16:54:16.146Z,25.40
2023-03-03T16:57:25.035Z,25.45
2023-03-03T17:00:30.894Z,29.92
2023-03-03T17:04:02.941Z,25.73
2023-03-03T17:07:35.808Z,29.73
2023-03-03T17:11:00.971Z,26.97
2023-03-03T17:14:03.275Z,29.73
2023-03-03T17:17:34.932Z,24.95
2023-03-03T17:20:43.341Z,27.83
2023-03-03T17:23:56.361Z,27.40
2023-03-03T17:27:10.932Z,25.47
2023-03-03T17:30:30.190Z,29.55
2023-03-03T17:33:57.727Z,26.67
2023-03-03T17:37:15.718Z,25.55
2023-03-03T17:40:59.961Z,26.73
2023-03-03T17:44:22.853Z,29.50
2023-03-03T17:47:40.575Z,27.48
2023-03-03T17:50:49.466Z,28.55
2023-03-03T17:54:04.408Z,26.15
2023-03-03T17:57:42.403Z,26.42
2023-03-03T18:01:12.633Z,27.10
2023-03-03T18:04:34.312Z,28.10
2023-03-03T18:07:42.812Z,29.35
2023-03-03T18:10:51.258Z,31.83
2023-03-03T18:13:56.667Z,30.20
2023-03-03T18:17:09.993Z,30.57
2023-03-03T18:20:31.035Z,31.15
2023-03-03T18:23:44.289Z,32.63
2023-03-03T18:26:47.389Z,31.23
2023-03-03T18:30:05.787Z,32.95
2023-03-03T18:33:11.942Z,34.27
2023-03-03T18:36:37.471Z,35.05
2023-03-03T18:40:09.882Z,38.03
2023-03-03T18:43:48.779Z,34.38
2023-03-03T18:46:53.346Z,32.90
2023-03-03T18:50:31.561Z,35.63
2023-03-03T18:53:36.002Z,35.72
2023-03-03T18:56:47.604Z,41.22
2023-03-03T19:00:13.239Z,38.92
2023-03-03T19:03:26.900Z,37.20
2023-03-03T19:06:49.882Z,37.77
2023-03-03T19:10:03.770Z,40.12
2023-03-03T19:13:35.284Z,33.97
2023-03-03T19:16:38.505Z,35.28
2023-03-03T19:20:00.587Z,36.72
2023-03-03T19:23:08.703Z,37.73
2023-03-03T19:26:33.363Z,38.47
2023-03-03T19:29:45.330Z,38.13
2023-03-03T19:33:13.738Z,39.28
2023-03-03T19:36:47.109Z,38.55
2023-03-03T19:40:20.642Z,37.90
2023-03-03T19:43:35.762Z,35.97
2023-03-03T19:46:56.508Z,30.70
2023-03-03T19:50:01.964Z,33.78
2023-03-03T19:53:43.539Z,31.40
2023-03-03T19:56:50.947Z,33.47
2023-03-03T20:00:05.624Z,36.95
2023-03-03T20:03:42.062Z,34.67
2023-03-03T20:07:43.289Z,30.48
2023-03-03T20:11:07.916Z,29.75
2023-03-03T20:14:32.781Z,30.10
2023-03-03T20:17:44.987Z,29.67
2023-03-03T20:20:50.535Z,30.50
2023-03-03T20:24:04.980Z,28.08
2023-03-03T20:27:17.717Z,34.65
2023-03-03T20:30:25.265Z,27.63
2023-03-03T20:34:01.675Z,33.33
2023-03-03T20:37:39.276Z,33.45
2023-03-03T20:40:57.638Z,30.48
2023-03-03T20:44:36.722Z,30.45
2023-03-03T20:47:58.222Z,30.63
2023-03-03T20:51:29.661Z,30.73
2023-03-03T20:54:32.397Z,35.63
2023-03-03T20:57:46.979Z,36.53
2023-03-03T21:01:04.200Z,31.25
2023-03-03T21:04:26.714Z,28.30
2023-03-03T21:07:29.500Z,28.35
2023-03-03T21:10:35.962Z,27.37
2023-03-03T21:14:08.602Z,31.00
2023-03-03T21:17:41.896Z,27.67
2023-03-03T21:20:45.050Z,28.63
2023-03-03T21:23:47.539Z,29.95
2023-03-03T21:27:01.383Z,25.52
2023-03-03T21:30:17.305Z,28.42
2023-03-03T21:33:54.930Z,28.92
2023-03-03T21:37:03.224Z,29.80
2023-03-03T21:40:25.415Z,24.12
2023-03-03T21:43:39.685Z,31.62
2023-03-03T21:46:42.486Z,28.10
2023-03-03T21:49:46.626Z,26.17
2023-03-03T21:52:49.696Z,30.20
2023-03-03T21:55:53.816Z,29.35
2023-03-03T21:58:56.494Z,32.95
2023-03-03T22:01:58.881Z,30.98
2023-03-03T22:05:03.762Z,36.33
2023-03-03T22:08:06.718Z,33.80
2023-03-03T22:11:09.618Z,34.38
2023-03-03T22:14:12.137Z,31.02
2023-03-03T22:17:14.883Z,36.17
2023-03-03T22:20:17.557Z,33.17
2023-03-03T22:23:20.464Z,32.63
2023-03-03T22:26:22.983Z,32.22
2023-03-03T22:29:26.497Z,35.67
2023-03-03T22:32:29.868Z,33.40
2023-03-03T22:35:32.856Z,39.30
2023-03-03T22:38:35.376Z,37.53
2023-03-03T22:41:38.489Z,36.70
2023-03-03T22:44:41.048Z,42.92
2023-03-03T22:47:43.835Z,43.70
2023-03-03T22:50:47.521Z,41.28
2023-03-03T22:53:50.280Z,45.83
2023-03-03T22:56:52.645Z,41.00
2023-03-03T22:59:55.591Z,42.00
2023-03-03T23:02:58.075Z,46.80
2023-03-03T23:06:01.353Z,40.53
2023-03-03T23:09:03.847Z,54.03
2023-03-03T23:12:06.963Z,45.42
2023-03-03T23:15:13.500Z,46.08
2023-03-03T23:18:16.153Z,46.97
2023-03-03T23:21:18.726Z,48.53
2023-03-03T23:24:21.422Z,43.27
2023-03-03T23:27:23.883Z,41.33
2023-03-03T23:30:26.616Z,46.03
2023-03-03T23:33:29.108Z,50.72
2023-03-03T23:36:31.829Z,48.42
2023-03-03T23:39:34.235Z,47.47
2023-03-03T23:42:36.892Z,48.58
2023-03-03T23:45:39.350Z,51.80
2023-03-03T23:48:42.057Z,49.58
2023-03-03T23:51:45.081Z,47.08
2023-03-03T23:54:47.836Z,53.93
2023-03-03T23:57:50.242Z,52.55
